sensor_id;sensor_type;location;lat;lon;timestamp;temperature;humidity
64654;DHT22;51065;48.884;12.598;2023-03-20T13:27:32;15.00;85.20
64654;DHT22;51065;48.884;12.598;2023-03-20T13:30:12;14.90;83.80
64654;DHT22;51065;48.884;12.598;2023-03-20T13:33:02;14.90;85.80
64654;DHT22;51065;48.884;12.598;2023-03-20T13:38:20;15.00;85.90
64654;DHT22;51065;48.884;12.598;2023-03-20T13:40:52;15.00;82.70
64654;DHT22;51065;48.884;12.598;2023-03-20T13:43:21;14.80;85.00
64654;DHT22;51065;48.884;12.598;2023-03-20T13:45:52;14.90;78.90
64654;DHT22;51065;48.884;12.598;2023-03-20T13:48:29;14.90;81.60
64654;DHT22;51065;48.884;12.598;2023-03-20T13:50:58;15.20;79.20
64654;DHT22;51065;48.884;12.598;2023-03-20T13:59:08;15.70;76.00
64654;DHT22;51065;48.884;12.598;2023-03-20T14:04:15;15.30;76.90
64654;DHT22;51065;48.884;12.598;2023-03-20T14:06:47;14.80;81.10
64654;DHT22;51065;48.884;12.598;2023-03-20T14:09:30;14.30;83.90
64654;DHT22;51065;48.884;12.598;2023-03-20T14:14:27;13.60;90.50
64654;DHT22;51065;48.884;12.598;2023-03-20T14:19:47;13.40;92.90
64654;DHT22;51065;48.884;12.598;2023-03-20T14:22:15;13.50;92.90
64654;DHT22;51065;48.884;12.598;2023-03-20T14:25:19;13.70;93.10
64654;DHT22;51065;48.884;12.598;2023-03-20T14:28:43;13.70;92.70
64654;DHT22;51065;48.884;12.598;2023-03-20T14:30:45;13.80;93.20
64654;DHT22;51065;48.884;12.598;2023-03-20T14:35:41;14.10;91.20
64654;DHT22;51065;48.884;12.598;2023-03-20T14:40:42;14.40;90.50
64654;DHT22;51065;48.884;12.598;2023-03-20T14:45:53;14.80;90.00
64654;DHT22;51065;48.884;12.598;2023-03-20T14:56:46;14.90;88.80
64654;DHT22;51065;48.884;12.598;2023-03-20T14:59:13;15.10;87.10
64654;DHT22;51065;48.884;12.598;2023-03-20T15:01:44;14.80;87.00
64654;DHT22;51065;48.884;12.598;2023-03-20T15:04:29;14.60;89.10
64654;DHT22;51065;48.884;12.598;2023-03-20T15:07:01;14.30;90.50
64654;DHT22;51065;48.884;12.598;2023-03-20T15:09:29;14.20;91.30
64654;DHT22;51065;48.884;12.598;2023-03-20T15:11:56;14.20;91.50
64654;DHT22;51065;48.884;12.598;2023-03-20T15:14:37;14.30;91.60
64654;DHT22;51065;48.884;12.598;2023-03-20T15:17:14;14.40;90.60
64654;DHT22;51065;48.884;12.598;2023-03-20T15:19:40;14.30;91.50
64654;DHT22;51065;48.884;12.598;2023-03-20T15:22:14;14.30;91.50
64654;DHT22;51065;48.884;12.598;2023-03-20T15:24:40;14.20;91.30
64654;DHT22;51065;48.884;12.598;2023-03-20T15:27:05;14.20;92.20
64654;DHT22;51065;48.884;12.598;2023-03-20T15:29:31;14.10;92.20
64654;DHT22;51065;48.884;12.598;2023-03-20T15:31:59;14.00;92.40
64654;DHT22;51065;48.884;12.598;2023-03-20T15:34:29;13.90;93.20
64654;DHT22;51065;48.884;12.598;2023-03-20T15:36:57;13.80;93.20
64654;DHT22;51065;48.884;12.598;2023-03-20T15:39:27;13.80;93.00
64654;DHT22;51065;48.884;12.598;2023-03-20T15:42:00;13.70;93.90
64654;DHT22;51065;48.884;12.598;2023-03-20T15:44:35;13.50;94.60
64654;DHT22;51065;48.884;12.598;2023-03-20T15:47:17;13.40;94.40
64654;DHT22;51065;48.884;12.598;2023-03-20T15:49:49;13.40;94.90
64654;DHT22;51065;48.884;12.598;2023-03-20T15:55:04;13.50;94.90
64654;DHT22;51065;48.884;12.598;2023-03-20T15:57:32;13.50;95.20
64654;DHT22;51065;48.884;12.598;2023-03-20T15:59:58;13.50;95.00
64654;DHT22;51065;48.884;12.598;2023-03-20T16:02:25;13.50;95.00
64654;DHT22;51065;48.884;12.598;2023-03-20T16:04:52;13.50;95.80
64654;DHT22;51065;48.884;12.598;2023-03-20T16:07:27;13.40;96.00
64654;DHT22;51065;48.884;12.598;2023-03-20T16:09:53;13.40;96.00
64654;DHT22;51065;48.884;12.598;2023-03-20T16:12:19;13.40;96.50
64654;DHT22;51065;48.884;12.598;2023-03-20T16:14:47;13.30;95.50
64654;DHT22;51065;48.884;12.598;2023-03-20T16:17:14;13.40;95.90
64654;DHT22;51065;48.884;12.598;2023-03-20T16:19:40;13.30;95.50
64654;DHT22;51065;48.884;12.598;2023-03-20T16:22:29;13.20;95.60
64654;DHT22;51065;48.884;12.598;2023-03-20T16:24:58;13.20;96.50
64654;DHT22;51065;48.884;12.598;2023-03-20T16:27:28;13.10;96.60
64654;DHT22;51065;48.884;12.598;2023-03-20T16:29:54;13.10;97.20
64654;DHT22;51065;48.884;12.598;2023-03-20T16:32:36;13.00;97.70
64654;DHT22;51065;48.884;12.598;2023-03-20T16:35:09;12.90;97.80
64654;DHT22;51065;48.884;12.598;2023-03-20T16:37:59;12.90;98.40
64654;DHT22;51065;48.884;12.598;2023-03-20T16:40:33;12.80;99.50
64654;DHT22;51065;48.884;12.598;2023-03-20T16:43:17;12.60;99.70
64654;DHT22;51065;48.884;12.598;2023-03-20T16:45:45;12.50;99.90
64654;DHT22;51065;48.884;12.598;2023-03-20T16:50:43;12.30;99.90
64654;DHT22;51065;48.884;12.598;2023-03-20T16:53:17;12.20;99.90
64654;DHT22;51065;48.884;12.598;2023-03-20T16:55:51;12.10;99.90
64654;DHT22;51065;48.884;12.598;2023-03-20T16:58:28;12.00;99.90
64654;DHT22;51065;48.884;12.598;2023-03-20T17:01:00;11.90;99.90
64654;DHT22;51065;48.884;12.598;2023-03-20T17:03:29;11.80;99.90
64654;DHT22;51065;48.884;12.598;2023-03-20T17:06:07;11.70;99.90
64654;DHT22;51065;48.884;12.598;2023-03-20T17:08:40;11.60;99.90
64654;DHT22;51065;48.884;12.598;2023-03-20T17:11:25;11.50;99.90
64654;DHT22;51065;48.884;12.598;2023-03-20T17:13:52;11.50;99.90
64654;DHT22;51065;48.884;12.598;2023-03-20T17:16:19;11.40;99.90
64654;DHT22;51065;48.884;12.598;2023-03-20T17:18:46;11.30;99.90
64654;DHT22;51065;48.884;12.598;2023-03-20T17:21:12;11.10;99.90
64654;DHT22;51065;48.884;12.598;2023-03-20T17:23:38;11.10;99.90
64654;DHT22;51065;48.884;12.598;2023-03-20T17:26:04;10.90;99.90
64654;DHT22;51065;48.884;12.598;2023-03-20T17:28:34;10.80;99.90
64654;DHT22;51065;48.884;12.598;2023-03-20T17:31:00;10.60;99.90
64654;DHT22;51065;48.884;12.598;2023-03-20T17:33:30;10.40;99.90
64654;DHT22;51065;48.884;12.598;2023-03-20T17:35:57;10.20;99.90
64654;DHT22;51065;48.884;12.598;2023-03-20T17:38:23;10.10;99.90
64654;DHT22;51065;48.884;12.598;2023-03-20T17:40:50;10.00;99.90
64654;DHT22;51065;48.884;12.598;2023-03-20T17:43:17;9.90;99.90
64654;DHT22;51065;48.884;12.598;2023-03-20T17:45:43;9.80;99.90
64654;DHT22;51065;48.884;12.598;2023-03-20T17:48:12;9.60;99.90
64654;DHT22;51065;48.884;12.598;2023-03-20T17:50:43;9.60;99.90
64654;DHT22;51065;48.884;12.598;2023-03-20T17:53:14;9.50;99.90
64654;DHT22;51065;48.884;12.598;2023-03-20T17:55:40;9.50;99.90
64654;DHT22;51065;48.884;12.598;2023-03-20T17:58:07;9.50;99.90
64654;DHT22;51065;48.884;12.598;2023-03-20T18:00:33;9.60;99.90
64654;DHT22;51065;48.884;12.598;2023-03-20T18:02:59;9.70;99.90
64654;DHT22;51065;48.884;12.598;2023-03-20T18:05:24;9.80;99.90
64654;DHT22;51065;48.884;12.598;2023-03-20T18:07:50;9.90;99.90
64654;DHT22;51065;48.884;12.598;2023-03-20T18:10:24;9.90;99.90
64654;DHT22;51065;48.884;12.598;2023-03-20T18:12:50;10.00;99.90
64654;DHT22;51065;48.884;12.598;2023-03-20T18:15:16;10.00;99.90
64654;DHT22;51065;48.884;12.598;2023-03-20T18:17:41;9.90;99.90
64654;DHT22;51065;48.884;12.598;2023-03-20T18:20:26;10.00;99.90
64654;DHT22;51065;48.884;12.598;2023-03-20T18:22:52;10.00;99.90
64654;DHT22;51065;48.884;12.598;2023-03-20T18:25:18;10.00;99.90
64654;DHT22;51065;48.884;12.598;2023-03-20T18:27:43;10.10;99.90
64654;DHT22;51065;48.884;12.598;2023-03-20T18:30:17;10.10;99.90
64654;DHT22;51065;48.884;12.598;2023-03-20T18:32:44;10.10;99.90
64654;DHT22;51065;48.884;12.598;2023-03-20T18:35:09;10.20;99.90
64654;DHT22;51065;48.884;12.598;2023-03-20T18:37:36;10.30;99.90
64654;DHT22;51065;48.884;12.598;2023-03-20T18:40:02;10.30;99.90
64654;DHT22;51065;48.884;12.598;2023-03-20T18:42:28;10.30;99.90
64654;DHT22;51065;48.884;12.598;2023-03-20T18:44:54;10.30;99.90
64654;DHT22;51065;48.884;12.598;2023-03-20T18:47:20;10.20;99.90
64654;DHT22;51065;48.884;12.598;2023-03-20T18:49:45;10.20;99.90
64654;DHT22;51065;48.884;12.598;2023-03-20T18:52:11;10.10;99.90
64654;DHT22;51065;48.884;12.598;2023-03-20T18:54:39;10.10;99.90
64654;DHT22;51065;48.884;12.598;2023-03-20T18:57:05;10.10;99.90
64654;DHT22;51065;48.884;12.598;2023-03-20T18:59:31;10.10;99.90
64654;DHT22;51065;48.884;12.598;2023-03-20T19:01:56;10.10;99.90
64654;DHT22;51065;48.884;12.598;2023-03-20T19:04:22;10.00;99.90
64654;DHT22;51065;48.884;12.598;2023-03-20T19:06:48;10.00;99.90
64654;DHT22;51065;48.884;12.598;2023-03-20T19:09:14;10.00;99.90
64654;DHT22;51065;48.884;12.598;2023-03-20T19:11:40;10.00;99.90
64654;DHT22;51065;48.884;12.598;2023-03-20T19:14:05;9.90;99.90
64654;DHT22;51065;48.884;12.598;2023-03-20T19:16:33;9.90;99.90
64654;DHT22;51065;48.884;12.598;2023-03-20T19:19:01;9.80;99.90
64654;DHT22;51065;48.884;12.598;2023-03-20T19:21:32;9.70;99.90
64654;DHT22;51065;48.884;12.598;2023-03-20T19:24:03;9.60;99.90
64654;DHT22;51065;48.884;12.598;2023-03-20T19:26:32;9.50;99.90
64654;DHT22;51065;48.884;12.598;2023-03-20T19:28:59;9.40;99.90
64654;DHT22;51065;48.884;12.598;2023-03-20T19:31:25;9.40;99.90
64654;DHT22;51065;48.884;12.598;2023-03-20T19:33:51;9.40;99.90
64654;DHT22;51065;48.884;12.598;2023-03-20T19:36:21;9.40;99.90
64654;DHT22;51065;48.884;12.598;2023-03-20T19:38:47;9.40;99.90
64654;DHT22;51065;48.884;12.598;2023-03-20T19:41:13;9.40;99.90
64654;DHT22;51065;48.884;12.598;2023-03-20T19:43:39;9.30;99.90
64654;DHT22;51065;48.884;12.598;2023-03-20T19:46:04;9.20;99.90
64654;DHT22;51065;48.884;12.598;2023-03-20T19:48:33;9.10;99.90
64654;DHT22;51065;48.884;12.598;2023-03-20T19:51:00;9.00;99.90
64654;DHT22;51065;48.884;12.598;2023-03-20T19:53:26;9.00;99.90
64654;DHT22;51065;48.884;12.598;2023-03-20T19:55:54;8.90;99.90
64654;DHT22;51065;48.884;12.598;2023-03-20T19:58:20;9.00;99.90
64654;DHT22;51065;48.884;12.598;2023-03-20T20:00:46;8.90;99.90
64654;DHT22;51065;48.884;12.598;2023-03-20T20:03:22;8.80;99.90
64654;DHT22;51065;48.884;12.598;2023-03-20T20:05:49;8.70;99.90
64654;DHT22;51065;48.884;12.598;2023-03-20T20:08:15;8.50;99.90
64654;DHT22;51065;48.884;12.598;2023-03-20T20:10:51;8.40;99.90
64654;DHT22;51065;48.884;12.598;2023-03-20T20:13:22;8.20;99.90
64654;DHT22;51065;48.884;12.598;2023-03-20T20:15:49;8.20;99.90
64654;DHT22;51065;48.884;12.598;2023-03-20T20:18:16;8.00;99.90
64654;DHT22;51065;48.884;12.598;2023-03-20T20:20:42;8.00;99.90
64654;DHT22;51065;48.884;12.598;2023-03-20T20:23:13;8.20;99.90
64654;DHT22;51065;48.884;12.598;2023-03-20T20:25:39;8.20;99.90
64654;DHT22;51065;48.884;12.598;2023-03-20T20:28:07;8.20;99.90
64654;DHT22;51065;48.884;12.598;2023-03-20T20:30:33;8.10;99.90
64654;DHT22;51065;48.884;12.598;2023-03-20T20:32:59;8.00;99.90
64654;DHT22;51065;48.884;12.598;2023-03-20T20:35:24;8.00;99.90
64654;DHT22;51065;48.884;12.598;2023-03-20T20:37:50;7.90;99.90
64654;DHT22;51065;48.884;12.598;2023-03-20T20:40:18;7.90;99.90
64654;DHT22;51065;48.884;12.598;2023-03-20T20:42:45;7.80;99.90
64654;DHT22;51065;48.884;12.598;2023-03-20T20:45:12;7.70;99.90
64654;DHT22;51065;48.884;12.598;2023-03-20T20:47:41;7.70;99.90
64654;DHT22;51065;48.884;12.598;2023-03-20T20:50:08;7.60;99.90
64654;DHT22;51065;48.884;12.598;2023-03-20T20:52:37;7.60;99.90
64654;DHT22;51065;48.884;12.598;2023-03-20T20:55:04;7.60;99.90
64654;DHT22;51065;48.884;12.598;2023-03-20T20:57:30;7.70;99.90
64654;DHT22;51065;48.884;12.598;2023-03-20T20:59:55;7.70;99.90
64654;DHT22;51065;48.884;12.598;2023-03-20T21:02:28;7.70;99.90
64654;DHT22;51065;48.884;12.598;2023-03-20T21:04:54;7.60;99.90
64654;DHT22;51065;48.884;12.598;2023-03-20T21:07:20;7.60;99.90
64654;DHT22;51065;48.884;12.598;2023-03-20T21:09:46;7.60;99.90
64654;DHT22;51065;48.884;12.598;2023-03-20T21:12:12;7.70;99.90
64654;DHT22;51065;48.884;12.598;2023-03-20T21:14:40;7.70;99.90
64654;DHT22;51065;48.884;12.598;2023-03-20T21:17:06;7.80;99.90
64654;DHT22;51065;48.884;12.598;2023-03-20T21:19:34;7.80;99.90
64654;DHT22;51065;48.884;12.598;2023-03-20T21:22:00;7.70;99.90
64654;DHT22;51065;48.884;12.598;2023-03-20T21:24:25;7.70;99.90
64654;DHT22;51065;48.884;12.598;2023-03-20T21:26:52;7.70;99.90
64654;DHT22;51065;48.884;12.598;2023-03-20T21:29:18;7.70;99.90
64654;DHT22;51065;48.884;12.598;2023-03-20T21:31:45;7.70;99.90
64654;DHT22;51065;48.884;12.598;2023-03-20T21:34:12;7.60;99.90
64654;DHT22;51065;48.884;12.598;2023-03-20T21:36:37;7.60;99.90
64654;DHT22;51065;48.884;12.598;2023-03-20T21:39:03;7.50;99.90
64654;DHT22;51065;48.884;12.598;2023-03-20T21:41:29;7.40;99.90
64654;DHT22;51065;48.884;12.598;2023-03-20T21:43:54;7.40;99.90
64654;DHT22;51065;48.884;12.598;2023-03-20T21:46:20;7.30;99.90
64654;DHT22;51065;48.884;12.598;2023-03-20T21:48:45;7.40;99.90
64654;DHT22;51065;48.884;12.598;2023-03-20T21:51:11;7.40;99.90
64654;DHT22;51065;48.884;12.598;2023-03-20T21:53:36;7.50;99.90
64654;DHT22;51065;48.884;12.598;2023-03-20T21:56:02;7.50;99.90
64654;DHT22;51065;48.884;12.598;2023-03-20T21:58:28;7.50;99.90
64654;DHT22;51065;48.884;12.598;2023-03-20T22:00:54;7.60;99.90
64654;DHT22;51065;48.884;12.598;2023-03-20T22:03:20;7.60;99.90
64654;DHT22;51065;48.884;12.598;2023-03-20T22:05:46;7.50;99.90
64654;DHT22;51065;48.884;12.598;2023-03-20T22:08:11;7.60;99.90
64654;DHT22;51065;48.884;12.598;2023-03-20T22:10:38;7.50;99.90
64654;DHT22;51065;48.884;12.598;2023-03-20T22:13:05;7.50;99.90
64654;DHT22;51065;48.884;12.598;2023-03-20T22:15:31;7.50;99.90
64654;DHT22;51065;48.884;12.598;2023-03-20T22:17:56;7.40;99.90
64654;DHT22;51065;48.884;12.598;2023-03-20T22:20:22;7.30;99.90
64654;DHT22;51065;48.884;12.598;2023-03-20T22:22:50;7.30;99.90
64654;DHT22;51065;48.884;12.598;2023-03-20T22:25:16;7.20;99.90
64654;DHT22;51065;48.884;12.598;2023-03-20T22:27:42;7.30;99.90
64654;DHT22;51065;48.884;12.598;2023-03-20T22:30:09;7.20;99.90
64654;DHT22;51065;48.884;12.598;2023-03-20T22:32:35;7.20;99.90
64654;DHT22;51065;48.884;12.598;2023-03-20T22:35:06;7.20;99.90
64654;DHT22;51065;48.884;12.598;2023-03-20T22:37:31;7.30;99.90
64654;DHT22;51065;48.884;12.598;2023-03-20T22:39:57;7.30;99.90
64654;DHT22;51065;48.884;12.598;2023-03-20T22:42:22;7.20;99.90
64654;DHT22;51065;48.884;12.598;2023-03-20T22:44:48;7.20;99.90
64654;DHT22;51065;48.884;12.598;2023-03-20T22:47:14;7.20;99.90
64654;DHT22;51065;48.884;12.598;2023-03-20T22:49:40;7.20;99.90
64654;DHT22;51065;48.884;12.598;2023-03-20T22:52:06;7.20;99.90
64654;DHT22;51065;48.884;12.598;2023-03-20T22:54:31;7.20;99.90
64654;DHT22;51065;48.884;12.598;2023-03-20T22:56:57;7.20;99.90
64654;DHT22;51065;48.884;12.598;2023-03-20T22:59:23;7.20;99.90
64654;DHT22;51065;48.884;12.598;2023-03-20T23:01:48;7.20;99.90
64654;DHT22;51065;48.884;12.598;2023-03-20T23:04:14;7.20;99.90
64654;DHT22;51065;48.884;12.598;2023-03-20T23:06:40;7.20;99.90
64654;DHT22;51065;48.884;12.598;2023-03-20T23:09:05;7.20;99.90
64654;DHT22;51065;48.884;12.598;2023-03-20T23:11:33;7.30;99.90
64654;DHT22;51065;48.884;12.598;2023-03-20T23:14:00;7.30;99.90
64654;DHT22;51065;48.884;12.598;2023-03-20T23:16:25;7.30;99.90
64654;DHT22;51065;48.884;12.598;2023-03-20T23:18:51;7.30;99.90
64654;DHT22;51065;48.884;12.598;2023-03-20T23:21:17;7.40;99.90
64654;DHT22;51065;48.884;12.598;2023-03-20T23:23:43;7.40;99.90
64654;DHT22;51065;48.884;12.598;2023-03-20T23:26:14;7.40;99.90
64654;DHT22;51065;48.884;12.598;2023-03-20T23:28:42;7.40;99.90
64654;DHT22;51065;48.884;12.598;2023-03-20T23:31:11;7.30;99.90
64654;DHT22;51065;48.884;12.598;2023-03-20T23:33:40;7.30;99.90
64654;DHT22;51065;48.884;12.598;2023-03-20T23:36:07;7.20;99.90
64654;DHT22;51065;48.884;12.598;2023-03-20T23:38:33;7.20;99.90
64654;DHT22;51065;48.884;12.598;2023-03-20T23:40:58;7.20;99.90
64654;DHT22;51065;48.884;12.598;2023-03-20T23:43:25;7.10;99.90
64654;DHT22;51065;48.884;12.598;2023-03-20T23:45:50;7.10;99.90
64654;DHT22;51065;48.884;12.598;2023-03-20T23:48:16;7.10;99.90
64654;DHT22;51065;48.884;12.598;2023-03-20T23:50:44;7.00;99.90
64654;DHT22;51065;48.884;12.598;2023-03-20T23:53:11;7.00;99.90
64654;DHT22;51065;48.884;12.598;2023-03-20T23:55:37;7.00;99.90
64654;DHT22;51065;48.884;12.598;2023-03-20T23:58:03;7.00;99.90
